Lynnewood Gardens, Pennsylvania
Current Conditions -  °F | °C
As of 10:35 PM on Wednesday 22 Oct 2014 (Local Time) from KLOM Reporting Station
Overcast Overcast  
Wind Chill: 52°   Ceiling: 1300
Heat Index: 52°   Visibility: 5mi
Dew Point: 50°   Wind: 6mph
Humidity: 94%   Direction: 310°NW
Pressure: 29.82"   Gusts: NA
Location:  40.0737°N, 75.1707°W
Report Text: KLOM 230235Z AUTO 31005KT 5SM BKN013 BKN020 OVC030 11/10 A2982 RMK AO1 P0002
Loading
Personal Weather Stations






























Interactive Weather Map
Tropical Storm Tracking
New forecast layout! Learn more

10-Day Weather Forecast

Advertisements
Track Severe Weather on mobile